Time;durP1;ratioP1;P1;durP2;ratioP2;P2;SDS_P1;SDS_P2;PMS_P1;PMS_P2;Temp;Humidity;BMP_temperature;BMP_pressure;BME280_temperature;BME280_humidity;BME280_pressure;Samples;Min_cycle;Max_cycle;Signal;HPM_P1;HPM_P2
2023/09/28 15:56:20;;;;;;;2.15;0.60;;;;;;;;;;6276167;22;20026;-82
2023/09/28 16:01:45;;;;;;;2.55;0.90;;;;;;;;;;6256991;22;20012;-83
2023/09/28 16:04:29;;;;;;;1.98;0.60;;;;;;;;;;6278076;22;20320;-84
2023/09/28 17:27:46;;;;;;;5.60;1.23;;;;;;;;;;6232594;22;21071;-83
2023/09/28 18:59:23;;;;;;;2.53;0.68;;;;;;;;;;6244843;22;20086;-82
2023/09/28 19:02:04;;;;;;;2.92;0.70;;;;;;;;;;6243894;22;20027;-81
2023/09/28 19:05:11;;;;;;;1.75;0.85;;;;;;;;;;6247945;22;20027;-83
2023/09/28 19:07:37;;;;;;;2.55;0.60;;;;;;;;;;6240398;22;20516;-82
2023/09/28 19:10:07;;;;;;;13.20;0.98;;;;;;;;;;6276153;22;20320;-82
2023/09/28 19:12:43;;;;;;;;;;;;;;;;;;;;;
2023/09/28 19:15:14;;;;;;;1.50;0.60;;;;;;;;;;6276140;22;20071;-83
2023/09/28 19:20:59;;;;;;;2.28;0.57;;;;;;;;;;6243511;23;20343;-81
2023/09/28 19:23:36;;;;;;;1.65;0.68;;;;;;;;;;6216766;23;20019;-82
2023/09/28 19:26:51;;;;;;;;;;;;;;;;;;;;;
2023/09/28 19:29:25;;;;;;;1.98;0.50;;;;;;;;;;6244968;23;20091;-81
2023/09/28 19:32:08;;;;;;;;;;;;;;;;;;;;;
2023/09/28 19:34:53;;;;;;;3.00;1.20;;;;;;;;;;6244991;22;20091;-81
2023/09/28 19:37:22;;;;;;;1.70;0.73;;;;;;;;;;6245386;23;20067;-81
2023/09/28 19:39:54;;;;;;;1.98;0.80;;;;;;;;;;6217477;23;20031;-81
2023/09/28 19:42:59;;;;;;;;;;;;;;;;;;;;;
2023/09/28 19:46:03;;;;;;;5.53;2.03;;;;;;;;;;6244790;23;20095;-81
2023/09/28 19:48:29;;;;;;;;;;;;;;;;;;6245564;23;20474;-81
2023/09/28 19:50:58;;;;;;;0.73;0.40;;;;;;;;;;6217394;23;19907;-81
2023/09/28 19:53:36;;;;;;;3.58;0.95;;;;;;;;;;6216765;23;20639;-81
2023/09/28 19:56:08;;;;;;;2.45;0.80;;;;;;;;;;6217891;23;20000;-81
2023/09/28 20:01:56;;;;;;;3.63;1.23;;;;;;;;;;6202709;23;20226;-82
2023/09/28 20:05:27;;;;;;;2.08;0.57;;;;;;;;;;6213878;23;20063;-82
2023/09/28 20:07:51;;;;;;;1.10;0.45;;;;;;;;;;6227201;22;20012;-81
2023/09/28 20:10:20;;;;;;;;;;;;;;;;;;6215792;23;20012;-81
2023/09/28 20:12:58;;;;;;;4.68;0.40;;;;;;;;;;6217557;23;19938;-82
2023/09/28 20:15:33;;;;;;;0.95;0.40;;;;;;;;;;6217119;23;20456;-82
2023/09/28 20:18:11;;;;;;;2.67;0.47;;;;;;;;;;6242925;23;20038;-81
2023/09/28 20:21:06;;;;;;;0.52;0.30;;;;;;;;;;6181019;23;20056;-81
2023/09/28 20:23:39;;;;;;;11.10;1.25;;;;;;;;;;6182381;23;20100;-82
2023/09/28 20:26:05;;;;;;;1.52;0.50;;;;;;;;;;6181367;23;20092;-81
2023/09/28 20:28:34;;;;;;;2.83;0.55;;;;;;;;;;6180646;23;20008;-82
2023/09/28 20:31:00;;;;;;;4.47;0.82;;;;;;;;;;6180564;23;20024;-81
2023/09/28 20:33:29;;;;;;;3.80;0.75;;;;;;;;;;6182039;23;20432;-82
2023/09/28 20:36:02;;;;;;;4.25;1.15;;;;;;;;;;6181393;23;20080;-81
2023/09/28 20:38:31;;;;;;;1.08;0.35;;;;;;;;;;6183077;23;20040;-81
2023/09/28 20:41:00;;;;;;;3.80;1.08;;;;;;;;;;6182869;23;20105;-81
2023/09/28 20:43:28;;;;;;;3.45;0.85;;;;;;;;;;6180414;23;20021;-81
2023/09/28 20:45:57;;;;;;;2.53;0.98;;;;;;;;;;6182355;23;20013;-81
2023/09/28 20:48:23;;;;;;;5.05;1.00;;;;;;;;;;6179938;23;20421;-81
2023/09/28 20:50:49;;;;;;;1.85;0.93;;;;;;;;;;6182451;23;20005;-81
2023/09/28 20:53:15;;;;;;;2.67;0.63;;;;;;;;;;6180247;23;20806;-81
2023/09/28 20:55:48;;;;;;;1.65;0.50;;;;;;;;;;6181279;23;20017;-81
2023/09/28 20:58:14;;;;;;;3.05;1.10;;;;;;;;;;6182272;23;20557;-81
2023/09/28 21:00:45;;;;;;;0.75;0.43;;;;;;;;;;6182354;23;20622;-81
2023/09/28 21:03:12;;;;;;;3.57;0.90;;;;;;;;;;6181912;23;20121;-81
2023/09/28 21:05:38;;;;;;;0.52;0.28;;;;;;;;;;6181017;23;20260;-81
2023/09/28 21:08:04;;;;;;;0.98;0.57;;;;;;;;;;6182553;23;20005;-81
2023/09/28 21:10:36;;;;;;;1.63;0.52;;;;;;;;;;6182413;23;20020;-81
2023/09/28 21:13:04;;;;;;;5.60;1.00;;;;;;;;;;6181728;23;20048;-81
2023/09/28 21:15:31;;;;;;;2.03;0.73;;;;;;;;;;6182041;23;20566;-81
2023/09/28 21:17:56;;;;;;;;;;;;;;;;;;6182305;23;20009;-81
2023/09/28 21:20:25;;;;;;;16.38;1.50;;;;;;;;;;6182707;23;19991;-81
2023/09/28 21:22:53;;;;;;;1.35;0.52;;;;;;;;;;6155846;23;20083;-81
2023/09/28 21:25:20;;;;;;;0.77;0.52;;;;;;;;;;6155508;23;20020;-81
2023/09/28 21:27:48;;;;;;;0.95;0.22;;;;;;;;;;6154535;23;20021;-81
2023/09/28 21:30:19;;;;;;;0.52;0.30;;;;;;;;;;6154709;23;20009;-81
2023/09/28 21:32:48;;;;;;;0.30;0.30;;;;;;;;;;6155624;23;20092;-81
2023/09/28 21:35:21;;;;;;;0.60;0.30;;;;;;;;;;6182161;23;20005;-81
2023/09/28 21:37:50;;;;;;;1.15;0.63;;;;;;;;;;6155551;23;20020;-81
2023/09/28 21:40:16;;;;;;;2.38;0.75;;;;;;;;;;6182010;23;20055;-81
2023/09/28 21:42:47;;;;;;;2.53;0.65;;;;;;;;;;6154728;23;20028;-81
2023/09/28 21:45:21;;;;;;;1.95;0.75;;;;;;;;;;6182110;23;20083;-81
2023/09/28 21:48:24;;;;;;;2.45;0.63;;;;;;;;;;6164518;23;20519;-81
2023/09/28 21:51:13;;;;;;;1.40;0.45;;;;;;;;;;6133712;23;20028;-81
2023/09/28 21:53:48;;;;;;;2.72;0.73;;;;;;;;;;6170899;23;20007;-81
2023/09/28 21:56:14;;;;;;;2.85;0.50;;;;;;;;;;6154837;23;20016;-81
2023/09/28 21:58:40;;;;;;;2.70;0.40;;;;;;;;;;6181843;23;20013;-81
2023/09/28 22:01:06;;;;;;;4.15;0.70;;;;;;;;;;6182322;23;20012;-81
2023/09/28 22:03:32;;;;;;;2.03;0.77;;;;;;;;;;6155923;23;20009;-81
2023/09/28 22:06:03;;;;;;;4.32;0.80;;;;;;;;;;6154056;23;20017;-81
2023/09/28 22:08:37;;;;;;;2.57;0.87;;;;;;;;;;6155326;23;20013;-82
2023/09/28 22:11:03;;;;;;;4.10;0.80;;;;;;;;;;6154687;23;20252;-81
2023/09/28 22:13:31;;;;;;;;;;;;;;;;;;6156433;23;20083;-81
2023/09/28 22:16:00;;;;;;;;;;;;;;;;;;6157112;23;19914;-81
2023/09/28 22:18:32;;;;;;;0.70;0.43;;;;;;;;;;6161319;23;19912;-81
2023/09/28 22:21:03;;;;;;;1.20;0.45;;;;;;;;;;6215918;23;20054;-82
2023/09/28 22:23:40;;;;;;;1.63;0.60;;;;;;;;;;6216730;23;20581;-81
2023/09/28 22:26:12;;;;;;;1.67;0.70;;;;;;;;;;6216719;23;20042;-81
2023/09/28 22:28:41;;;;;;;2.25;1.33;;;;;;;;;;6217300;23;20012;-81
2023/09/28 22:31:07;;;;;;;1.65;0.55;;;;;;;;;;6216616;23;20004;-81
2023/09/28 22:33:35;;;;;;;1.08;0.28;;;;;;;;;;6216620;23;20077;-81
2023/09/28 22:36:02;;;;;;;3.28;1.00;;;;;;;;;;6243296;23;20650;-81
2023/09/28 22:38:28;;;;;;;1.52;0.70;;;;;;;;;;6216372;23;20008;-81
2023/09/28 22:40:54;;;;;;;2.15;0.52;;;;;;;;;;6217139;23;20008;-81
2023/09/28 22:43:20;;;;;;;3.75;1.13;;;;;;;;;;6216631;23;20319;-80
2023/09/28 22:45:46;;;;;;;1.33;0.50;;;;;;;;;;6216981;23;20019;-81
2023/09/28 22:48:12;;;;;;;0.88;0.25;;;;;;;;;;6217398;23;20004;-81
2023/09/28 22:50:38;;;;;;;3.42;0.73;;;;;;;;;;6244663;23;20011;-81
2023/09/28 22:53:04;;;;;;;0.70;0.35;;;;;;;;;;6216528;23;20008;-81
2023/09/28 22:55:31;;;;;;;2.35;0.52;;;;;;;;;;6244516;23;20012;-81
2023/09/28 22:57:58;;;;;;;1.25;0.70;;;;;;;;;;6243617;23;20109;-81
2023/09/28 23:00:24;;;;;;;0.63;0.47;;;;;;;;;;6217202;23;20012;-81
2023/09/28 23:02:50;;;;;;;2.25;0.40;;;;;;;;;;6243629;23;20491;-81
2023/09/28 23:05:17;;;;;;;2.45;0.75;;;;;;;;;;6217756;23;20099;-81
2023/09/28 23:07:43;;;;;;;0.88;0.35;;;;;;;;;;6243497;23;20011;-81
2023/09/28 23:10:11;;;;;;;1.95;0.43;;;;;;;;;;6217184;23;20596;-81
2023/09/28 23:12:37;;;;;;;2.75;0.45;;;;;;;;;;6243630;23;20012;-81
2023/09/28 23:15:07;;;;;;;3.08;0.57;;;;;;;;;;6216690;23;20019;-81
2023/09/28 23:17:35;;;;;;;2.50;0.73;;;;;;;;;;6215896;23;20023;-81
2023/09/28 23:20:09;;;;;;;3.65;0.88;;;;;;;;;;6243811;23;20024;-81
2023/09/28 23:22:36;;;;;;;1.92;0.45;;;;;;;;;;6243442;23;20012;-81
2023/09/28 23:25:03;;;;;;;2.10;0.30;;;;;;;;;;6242908;23;20359;-81
2023/09/28 23:27:29;;;;;;;2.55;0.40;;;;;;;;;;6216497;23;20008;-81
2023/09/28 23:29:55;;;;;;;1.65;0.30;;;;;;;;;;6216947;23;20078;-81
2023/09/28 23:32:22;;;;;;;1.10;0.60;;;;;;;;;;6218190;23;20115;-81
2023/09/28 23:34:47;;;;;;;2.58;0.52;;;;;;;;;;6217115;23;20012;-81
2023/09/28 23:37:14;;;;;;;3.95;1.02;;;;;;;;;;6244046;23;20054;-81
2023/09/28 23:39:39;;;;;;;2.70;0.63;;;;;;;;;;6243550;23;20750;-81
2023/09/28 23:42:06;;;;;;;0.98;0.32;;;;;;;;;;6216503;23;20008;-81
2023/09/28 23:44:32;;;;;;;1.98;0.68;;;;;;;;;;6215768;23;20065;-81
2023/09/28 23:46:58;;;;;;;0.25;0.20;;;;;;;;;;6216155;23;20008;-81
2023/09/28 23:49:26;;;;;;;0.30;0.20;;;;;;;;;;6242762;23;20012;-80
2023/09/28 23:51:52;;;;;;;0.80;0.30;;;;;;;;;;6216428;23;20011;-81
2023/09/28 23:54:18;;;;;;;0.55;0.28;;;;;;;;;;6242468;23;20012;-81
2023/09/28 23:56:44;;;;;;;0.82;0.43;;;;;;;;;;6242769;23;20005;-80
2023/09/28 23:59:11;;;;;;;1.45;0.70;;;;;;;;;;6242258;23;20027;-81
